sensor_id;sensor_type;location;lat;lon;timestamp;temperature;humidity
70184;DHT22;57554;51.546;6.776;2022-08-19T00:01:26;20.30;61.30
70184;DHT22;57554;51.546;6.776;2022-08-19T00:03:52;20.30;61.40
70184;DHT22;57554;51.546;6.776;2022-08-19T00:06:18;20.20;61.40
70184;DHT22;57554;51.546;6.776;2022-08-19T00:08:43;20.20;61.40
70184;DHT22;57554;51.546;6.776;2022-08-19T00:11:10;20.20;61.50
70184;DHT22;57554;51.546;6.776;2022-08-19T00:13:35;20.20;61.40
70184;DHT22;57554;51.546;6.776;2022-08-19T00:16:02;20.20;61.50
70184;DHT22;57554;51.546;6.776;2022-08-19T00:18:28;20.20;61.50
70184;DHT22;57554;51.546;6.776;2022-08-19T00:20:54;20.10;61.60
70184;DHT22;57554;51.546;6.776;2022-08-19T00:23:19;20.10;61.70
70184;DHT22;57554;51.546;6.776;2022-08-19T00:25:45;20.10;61.80
70184;DHT22;57554;51.546;6.776;2022-08-19T00:28:11;20.00;62.10
70184;DHT22;57554;51.546;6.776;2022-08-19T00:30:37;20.00;62.20
70184;DHT22;57554;51.546;6.776;2022-08-19T00:33:03;19.90;62.20
70184;DHT22;57554;51.546;6.776;2022-08-19T00:35:29;19.90;62.20
70184;DHT22;57554;51.546;6.776;2022-08-19T00:37:55;19.90;62.20
70184;DHT22;57554;51.546;6.776;2022-08-19T00:40:21;19.80;62.30
70184;DHT22;57554;51.546;6.776;2022-08-19T00:42:47;19.80;62.40
70184;DHT22;57554;51.546;6.776;2022-08-19T00:45:18;19.80;62.30
70184;DHT22;57554;51.546;6.776;2022-08-19T00:47:45;19.80;62.40
70184;DHT22;57554;51.546;6.776;2022-08-19T00:50:13;19.80;62.40
70184;DHT22;57554;51.546;6.776;2022-08-19T00:52:42;19.70;62.50
70184;DHT22;57554;51.546;6.776;2022-08-19T00:55:14;19.70;62.60
70184;DHT22;57554;51.546;6.776;2022-08-19T00:57:43;19.70;62.60
70184;DHT22;57554;51.546;6.776;2022-08-19T01:00:13;19.60;62.60
70184;DHT22;57554;51.546;6.776;2022-08-19T01:02:41;19.60;62.70
70184;DHT22;57554;51.546;6.776;2022-08-19T01:05:11;19.60;62.80
70184;DHT22;57554;51.546;6.776;2022-08-19T01:07:39;19.50;62.90
70184;DHT22;57554;51.546;6.776;2022-08-19T01:10:08;19.50;62.90
70184;DHT22;57554;51.546;6.776;2022-08-19T01:12:34;19.50;62.90
70184;DHT22;57554;51.546;6.776;2022-08-19T01:15:00;19.50;62.90
70184;DHT22;57554;51.546;6.776;2022-08-19T01:17:26;19.40;62.90
70184;DHT22;57554;51.546;6.776;2022-08-19T01:19:52;19.40;63.20
70184;DHT22;57554;51.546;6.776;2022-08-19T01:22:27;19.40;63.10
70184;DHT22;57554;51.546;6.776;2022-08-19T01:24:53;19.40;63.20
70184;DHT22;57554;51.546;6.776;2022-08-19T01:27:18;19.40;63.20
70184;DHT22;57554;51.546;6.776;2022-08-19T01:29:45;19.40;63.30
70184;DHT22;57554;51.546;6.776;2022-08-19T01:32:14;19.30;63.30
70184;DHT22;57554;51.546;6.776;2022-08-19T01:34:41;19.30;63.30
70184;DHT22;57554;51.546;6.776;2022-08-19T01:37:11;19.30;63.30
70184;DHT22;57554;51.546;6.776;2022-08-19T01:39:39;19.20;63.30
70184;DHT22;57554;51.546;6.776;2022-08-19T01:42:06;19.20;63.50
70184;DHT22;57554;51.546;6.776;2022-08-19T01:44:34;19.10;63.70
70184;DHT22;57554;51.546;6.776;2022-08-19T01:47:01;19.10;63.70
70184;DHT22;57554;51.546;6.776;2022-08-19T01:49:27;19.10;63.80
70184;DHT22;57554;51.546;6.776;2022-08-19T01:51:54;19.00;63.80
70184;DHT22;57554;51.546;6.776;2022-08-19T01:54:21;19.00;63.80
70184;DHT22;57554;51.546;6.776;2022-08-19T01:56:47;19.00;63.80
70184;DHT22;57554;51.546;6.776;2022-08-19T01:59:16;19.00;63.70
70184;DHT22;57554;51.546;6.776;2022-08-19T02:01:43;19.00;63.90
70184;DHT22;57554;51.546;6.776;2022-08-19T02:04:08;19.00;63.90
70184;DHT22;57554;51.546;6.776;2022-08-19T02:06:35;19.00;64.00
70184;DHT22;57554;51.546;6.776;2022-08-19T02:09:02;19.00;64.10
70184;DHT22;57554;51.546;6.776;2022-08-19T02:11:31;18.90;64.10
70184;DHT22;57554;51.546;6.776;2022-08-19T02:13:58;18.90;64.20
70184;DHT22;57554;51.546;6.776;2022-08-19T02:16:24;18.90;64.30
70184;DHT22;57554;51.546;6.776;2022-08-19T02:18:50;18.80;64.50
70184;DHT22;57554;51.546;6.776;2022-08-19T02:21:17;18.80;64.40
70184;DHT22;57554;51.546;6.776;2022-08-19T02:23:44;18.80;64.40
70184;DHT22;57554;51.546;6.776;2022-08-19T02:26:10;18.80;64.40
70184;DHT22;57554;51.546;6.776;2022-08-19T02:28:36;18.80;64.20
70184;DHT22;57554;51.546;6.776;2022-08-19T02:31:02;18.70;64.30
70184;DHT22;57554;51.546;6.776;2022-08-19T02:33:28;18.70;64.30
70184;DHT22;57554;51.546;6.776;2022-08-19T02:35:54;18.60;64.40
70184;DHT22;57554;51.546;6.776;2022-08-19T02:38:19;18.60;64.50
70184;DHT22;57554;51.546;6.776;2022-08-19T02:41:00;18.60;64.40
70184;DHT22;57554;51.546;6.776;2022-08-19T02:43:28;18.60;64.50
70184;DHT22;57554;51.546;6.776;2022-08-19T02:45:54;18.60;64.40
70184;DHT22;57554;51.546;6.776;2022-08-19T02:48:21;18.60;64.50
70184;DHT22;57554;51.546;6.776;2022-08-19T02:50:50;18.60;64.60
70184;DHT22;57554;51.546;6.776;2022-08-19T02:53:24;18.50;64.70
70184;DHT22;57554;51.546;6.776;2022-08-19T02:55:50;18.50;64.60
70184;DHT22;57554;51.546;6.776;2022-08-19T02:58:17;18.50;64.70
70184;DHT22;57554;51.546;6.776;2022-08-19T03:00:45;18.50;64.60
70184;DHT22;57554;51.546;6.776;2022-08-19T03:03:11;18.50;64.60
70184;DHT22;57554;51.546;6.776;2022-08-19T03:05:37;18.50;64.60
70184;DHT22;57554;51.546;6.776;2022-08-19T03:08:02;18.50;64.70
70184;DHT22;57554;51.546;6.776;2022-08-19T03:10:29;18.50;64.80
70184;DHT22;57554;51.546;6.776;2022-08-19T03:12:54;18.50;64.70
70184;DHT22;57554;51.546;6.776;2022-08-19T03:15:20;18.40;64.80
70184;DHT22;57554;51.546;6.776;2022-08-19T03:17:46;18.40;64.90
70184;DHT22;57554;51.546;6.776;2022-08-19T03:20:11;18.40;64.90
70184;DHT22;57554;51.546;6.776;2022-08-19T03:22:37;18.40;64.90
70184;DHT22;57554;51.546;6.776;2022-08-19T03:25:03;18.40;65.00
70184;DHT22;57554;51.546;6.776;2022-08-19T03:27:29;18.30;64.90
70184;DHT22;57554;51.546;6.776;2022-08-19T03:29:55;18.30;65.00
70184;DHT22;57554;51.546;6.776;2022-08-19T03:32:20;18.30;65.10
70184;DHT22;57554;51.546;6.776;2022-08-19T03:34:47;18.30;65.10
70184;DHT22;57554;51.546;6.776;2022-08-19T03:37:12;18.30;65.20
70184;DHT22;57554;51.546;6.776;2022-08-19T03:39:40;18.30;65.20
70184;DHT22;57554;51.546;6.776;2022-08-19T03:42:06;18.30;65.20
70184;DHT22;57554;51.546;6.776;2022-08-19T03:44:32;18.30;65.10
70184;DHT22;57554;51.546;6.776;2022-08-19T03:46:59;18.40;65.00
70184;DHT22;57554;51.546;6.776;2022-08-19T03:49:27;18.40;64.90
70184;DHT22;57554;51.546;6.776;2022-08-19T03:51:54;18.40;64.90
70184;DHT22;57554;51.546;6.776;2022-08-19T03:54:21;18.40;64.90
70184;DHT22;57554;51.546;6.776;2022-08-19T03:56:50;18.30;64.90
70184;DHT22;57554;51.546;6.776;2022-08-19T03:59:20;18.30;64.90
70184;DHT22;57554;51.546;6.776;2022-08-19T04:01:47;18.30;65.00
70184;DHT22;57554;51.546;6.776;2022-08-19T04:04:12;18.30;65.10
70184;DHT22;57554;51.546;6.776;2022-08-19T04:06:39;18.30;65.20
70184;DHT22;57554;51.546;6.776;2022-08-19T04:09:07;18.30;65.20
70184;DHT22;57554;51.546;6.776;2022-08-19T04:11:46;18.20;65.40
70184;DHT22;57554;51.546;6.776;2022-08-19T04:14:16;18.20;65.30
70184;DHT22;57554;51.546;6.776;2022-08-19T04:16:42;18.20;65.40
70184;DHT22;57554;51.546;6.776;2022-08-19T04:19:09;18.20;65.30
70184;DHT22;57554;51.546;6.776;2022-08-19T04:21:35;18.20;65.30
70184;DHT22;57554;51.546;6.776;2022-08-19T04:24:01;18.20;65.40
70184;DHT22;57554;51.546;6.776;2022-08-19T04:26:29;18.20;65.30
70184;DHT22;57554;51.546;6.776;2022-08-19T04:28:58;18.20;65.40
70184;DHT22;57554;51.546;6.776;2022-08-19T04:31:27;18.10;65.40
70184;DHT22;57554;51.546;6.776;2022-08-19T04:33:53;18.10;65.60
70184;DHT22;57554;51.546;6.776;2022-08-19T04:36:22;18.10;65.60
70184;DHT22;57554;51.546;6.776;2022-08-19T04:38:48;18.10;65.60
70184;DHT22;57554;51.546;6.776;2022-08-19T04:41:15;18.10;65.60
70184;DHT22;57554;51.546;6.776;2022-08-19T04:43:59;18.10;65.70
70184;DHT22;57554;51.546;6.776;2022-08-19T04:46:25;18.00;65.80
70184;DHT22;57554;51.546;6.776;2022-08-19T04:48:51;18.00;65.80
70184;DHT22;57554;51.546;6.776;2022-08-19T04:51:18;18.00;65.80
70184;DHT22;57554;51.546;6.776;2022-08-19T04:53:43;18.00;65.90
70184;DHT22;57554;51.546;6.776;2022-08-19T04:56:16;18.00;66.00
70184;DHT22;57554;51.546;6.776;2022-08-19T04:58:44;18.00;66.20
70184;DHT22;57554;51.546;6.776;2022-08-19T05:01:20;18.00;66.20
70184;DHT22;57554;51.546;6.776;2022-08-19T05:03:45;17.90;66.20
70184;DHT22;57554;51.546;6.776;2022-08-19T05:06:14;18.00;66.30
70184;DHT22;57554;51.546;6.776;2022-08-19T05:08:41;18.00;66.30
70184;DHT22;57554;51.546;6.776;2022-08-19T05:11:17;18.00;66.40
70184;DHT22;57554;51.546;6.776;2022-08-19T05:13:44;18.00;66.50
70184;DHT22;57554;51.546;6.776;2022-08-19T05:16:11;18.00;66.40
70184;DHT22;57554;51.546;6.776;2022-08-19T05:18:38;18.10;66.40
70184;DHT22;57554;51.546;6.776;2022-08-19T05:21:23;18.10;66.50
70184;DHT22;57554;51.546;6.776;2022-08-19T05:24:07;18.10;66.60
70184;DHT22;57554;51.546;6.776;2022-08-19T05:26:35;18.10;66.80
70184;DHT22;57554;51.546;6.776;2022-08-19T05:29:02;18.10;67.00
70184;DHT22;57554;51.546;6.776;2022-08-19T05:31:28;18.20;67.20
70184;DHT22;57554;51.546;6.776;2022-08-19T05:33:54;18.20;67.00
70184;DHT22;57554;51.546;6.776;2022-08-19T05:36:21;18.30;66.90
70184;DHT22;57554;51.546;6.776;2022-08-19T05:38:46;18.30;66.80
70184;DHT22;57554;51.546;6.776;2022-08-19T05:41:13;18.40;66.90
70184;DHT22;57554;51.546;6.776;2022-08-19T05:43:40;18.40;66.80
70184;DHT22;57554;51.546;6.776;2022-08-19T05:46:06;18.50;67.00
70184;DHT22;57554;51.546;6.776;2022-08-19T05:48:33;18.60;67.30
70184;DHT22;57554;51.546;6.776;2022-08-19T05:51:06;18.70;67.70
70184;DHT22;57554;51.546;6.776;2022-08-19T05:53:33;18.90;67.90
70184;DHT22;57554;51.546;6.776;2022-08-19T05:56:13;19.10;67.70
70184;DHT22;57554;51.546;6.776;2022-08-19T05:58:42;19.30;67.80
70184;DHT22;57554;51.546;6.776;2022-08-19T06:01:13;19.40;67.80
70184;DHT22;57554;51.546;6.776;2022-08-19T06:03:39;19.60;67.70
70184;DHT22;57554;51.546;6.776;2022-08-19T06:06:06;19.80;68.00
70184;DHT22;57554;51.546;6.776;2022-08-19T06:08:34;20.00;67.90
70184;DHT22;57554;51.546;6.776;2022-08-19T06:11:23;20.30;67.80
70184;DHT22;57554;51.546;6.776;2022-08-19T06:13:52;20.40;67.80
70184;DHT22;57554;51.546;6.776;2022-08-19T06:16:19;20.60;67.90
70184;DHT22;57554;51.546;6.776;2022-08-19T06:18:51;20.80;68.10
70184;DHT22;57554;51.546;6.776;2022-08-19T06:21:23;21.10;68.00
70184;DHT22;57554;51.546;6.776;2022-08-19T06:23:49;21.30;67.60
70184;DHT22;57554;51.546;6.776;2022-08-19T06:26:18;21.50;67.60
70184;DHT22;57554;51.546;6.776;2022-08-19T06:28:44;21.60;67.60
70184;DHT22;57554;51.546;6.776;2022-08-19T06:31:13;21.80;67.30
70184;DHT22;57554;51.546;6.776;2022-08-19T06:33:40;22.10;67.00
70184;DHT22;57554;51.546;6.776;2022-08-19T06:36:06;22.30;66.50
70184;DHT22;57554;51.546;6.776;2022-08-19T06:38:32;22.50;65.80
70184;DHT22;57554;51.546;6.776;2022-08-19T06:41:05;22.60;65.30
70184;DHT22;57554;51.546;6.776;2022-08-19T06:43:31;22.70;65.10
70184;DHT22;57554;51.546;6.776;2022-08-19T06:45:56;22.80;65.10
70184;DHT22;57554;51.546;6.776;2022-08-19T06:48:22;22.90;64.50
70184;DHT22;57554;51.546;6.776;2022-08-19T06:50:47;23.00;64.30
70184;DHT22;57554;51.546;6.776;2022-08-19T06:53:15;23.20;63.70
70184;DHT22;57554;51.546;6.776;2022-08-19T06:55:40;23.30;63.60
70184;DHT22;57554;51.546;6.776;2022-08-19T06:58:06;23.30;63.30
70184;DHT22;57554;51.546;6.776;2022-08-19T07:00:32;23.40;63.50
70184;DHT22;57554;51.546;6.776;2022-08-19T07:02:58;23.50;63.20
70184;DHT22;57554;51.546;6.776;2022-08-19T07:05:25;23.60;62.80
70184;DHT22;57554;51.546;6.776;2022-08-19T07:07:51;23.60;62.40
70184;DHT22;57554;51.546;6.776;2022-08-19T07:10:17;23.60;62.20
70184;DHT22;57554;51.546;6.776;2022-08-19T07:12:43;23.60;62.20
70184;DHT22;57554;51.546;6.776;2022-08-19T07:15:09;23.60;62.00
70184;DHT22;57554;51.546;6.776;2022-08-19T07:17:37;23.50;61.70
70184;DHT22;57554;51.546;6.776;2022-08-19T07:20:06;23.40;62.10
70184;DHT22;57554;51.546;6.776;2022-08-19T07:22:33;23.40;62.40
70184;DHT22;57554;51.546;6.776;2022-08-19T07:24:59;23.50;62.30
70184;DHT22;57554;51.546;6.776;2022-08-19T07:27:25;23.60;61.90
70184;DHT22;57554;51.546;6.776;2022-08-19T07:29:51;23.60;62.10
70184;DHT22;57554;51.546;6.776;2022-08-19T07:32:17;23.60;62.20
70184;DHT22;57554;51.546;6.776;2022-08-19T07:34:42;23.70;61.90
70184;DHT22;57554;51.546;6.776;2022-08-19T07:37:08;23.80;62.00
70184;DHT22;57554;51.546;6.776;2022-08-19T07:39:35;23.90;61.70
70184;DHT22;57554;51.546;6.776;2022-08-19T07:42:06;24.10;61.40
70184;DHT22;57554;51.546;6.776;2022-08-19T07:44:32;24.20;60.70
70184;DHT22;57554;51.546;6.776;2022-08-19T07:46:59;24.30;60.30
70184;DHT22;57554;51.546;6.776;2022-08-19T07:49:26;24.40;60.20
70184;DHT22;57554;51.546;6.776;2022-08-19T07:52:02;24.50;59.70
70184;DHT22;57554;51.546;6.776;2022-08-19T07:54:31;24.60;59.30
70184;DHT22;57554;51.546;6.776;2022-08-19T07:56:59;24.70;59.10
70184;DHT22;57554;51.546;6.776;2022-08-19T07:59:25;24.80;58.00
70184;DHT22;57554;51.546;6.776;2022-08-19T08:01:51;24.90;57.60
70184;DHT22;57554;51.546;6.776;2022-08-19T08:04:18;25.00;56.80
70184;DHT22;57554;51.546;6.776;2022-08-19T08:07:04;25.10;56.10
70184;DHT22;57554;51.546;6.776;2022-08-19T08:09:49;25.20;56.20
70184;DHT22;57554;51.546;6.776;2022-08-19T08:12:27;25.30;55.80
70184;DHT22;57554;51.546;6.776;2022-08-19T08:14:56;25.30;55.40
70184;DHT22;57554;51.546;6.776;2022-08-19T08:17:25;25.20;55.60
70184;DHT22;57554;51.546;6.776;2022-08-19T08:19:51;25.10;55.30
70184;DHT22;57554;51.546;6.776;2022-08-19T08:22:19;25.10;55.70
70184;DHT22;57554;51.546;6.776;2022-08-19T08:25:10;25.00;55.90
70184;DHT22;57554;51.546;6.776;2022-08-19T08:27:38;25.10;55.40
70184;DHT22;57554;51.546;6.776;2022-08-19T08:30:07;25.20;55.50
70184;DHT22;57554;51.546;6.776;2022-08-19T08:32:38;25.30;55.00
70184;DHT22;57554;51.546;6.776;2022-08-19T08:35:10;25.50;53.90
70184;DHT22;57554;51.546;6.776;2022-08-19T08:37:37;25.60;54.00
70184;DHT22;57554;51.546;6.776;2022-08-19T08:40:07;25.80;52.70
70184;DHT22;57554;51.546;6.776;2022-08-19T08:42:42;25.90;52.10
70184;DHT22;57554;51.546;6.776;2022-08-19T08:45:13;25.90;52.10
70184;DHT22;57554;51.546;6.776;2022-08-19T08:47:44;25.80;51.70
70184;DHT22;57554;51.546;6.776;2022-08-19T08:52:45;25.40;52.80
70184;DHT22;57554;51.546;6.776;2022-08-19T08:55:32;25.30;53.40
70184;DHT22;57554;51.546;6.776;2022-08-19T08:58:04;25.30;53.50
70184;DHT22;57554;51.546;6.776;2022-08-19T09:00:38;25.30;53.50
70184;DHT22;57554;51.546;6.776;2022-08-19T09:03:26;25.50;53.80
70184;DHT22;57554;51.546;6.776;2022-08-19T09:06:11;25.70;53.40
70184;DHT22;57554;51.546;6.776;2022-08-19T09:11:14;26.10;52.50
70184;DHT22;57554;51.546;6.776;2022-08-19T09:13:56;26.30;51.80
70184;DHT22;57554;51.546;6.776;2022-08-19T09:16:26;26.50;51.10
70184;DHT22;57554;51.546;6.776;2022-08-19T09:18:55;26.70;50.10
70184;DHT22;57554;51.546;6.776;2022-08-19T09:21:24;26.70;49.70
70184;DHT22;57554;51.546;6.776;2022-08-19T09:23:51;26.70;48.60
70184;DHT22;57554;51.546;6.776;2022-08-19T09:26:19;26.80;48.80
70184;DHT22;57554;51.546;6.776;2022-08-19T09:28:48;26.90;48.40
70184;DHT22;57554;51.546;6.776;2022-08-19T09:31:17;27.00;48.20
70184;DHT22;57554;51.546;6.776;2022-08-19T09:33:43;27.10;47.50
70184;DHT22;57554;51.546;6.776;2022-08-19T09:36:11;27.20;47.80
70184;DHT22;57554;51.546;6.776;2022-08-19T09:38:37;27.40;47.70
70184;DHT22;57554;51.546;6.776;2022-08-19T09:41:09;27.60;47.30
70184;DHT22;57554;51.546;6.776;2022-08-19T09:43:37;27.70;46.70
70184;DHT22;57554;51.546;6.776;2022-08-19T09:46:05;27.80;46.40
70184;DHT22;57554;51.546;6.776;2022-08-19T09:48:37;27.70;46.10
70184;DHT22;57554;51.546;6.776;2022-08-19T09:51:08;27.70;46.50
70184;DHT22;57554;51.546;6.776;2022-08-19T09:53:37;27.60;46.20
70184;DHT22;57554;51.546;6.776;2022-08-19T09:56:04;27.50;46.50
70184;DHT22;57554;51.546;6.776;2022-08-19T09:58:32;27.40;46.50
70184;DHT22;57554;51.546;6.776;2022-08-19T10:00:58;27.50;47.10
70184;DHT22;57554;51.546;6.776;2022-08-19T10:03:26;27.70;46.80
70184;DHT22;57554;51.546;6.776;2022-08-19T10:05:52;27.80;46.20
70184;DHT22;57554;51.546;6.776;2022-08-19T10:08:24;27.90;45.80
70184;DHT22;57554;51.546;6.776;2022-08-19T10:10:51;27.80;46.10
70184;DHT22;57554;51.546;6.776;2022-08-19T10:13:20;27.80;45.70
70184;DHT22;57554;51.546;6.776;2022-08-19T10:15:49;27.80;45.40
70184;DHT22;57554;51.546;6.776;2022-08-19T10:18:20;27.70;46.40
70184;DHT22;57554;51.546;6.776;2022-08-19T10:20:47;27.90;45.80
70184;DHT22;57554;51.546;6.776;2022-08-19T10:23:14;27.90;45.40
70184;DHT22;57554;51.546;6.776;2022-08-19T10:25:41;27.80;45.40
70184;DHT22;57554;51.546;6.776;2022-08-19T10:28:07;27.60;45.50
70184;DHT22;57554;51.546;6.776;2022-08-19T10:30:33;27.40;46.00
70184;DHT22;57554;51.546;6.776;2022-08-19T10:33:00;27.40;46.00
70184;DHT22;57554;51.546;6.776;2022-08-19T10:35:26;27.30;46.00
70184;DHT22;57554;51.546;6.776;2022-08-19T10:37:55;27.40;46.00
70184;DHT22;57554;51.546;6.776;2022-08-19T10:40:26;27.40;45.50
70184;DHT22;57554;51.546;6.776;2022-08-19T10:42:53;27.40;45.90
70184;DHT22;57554;51.546;6.776;2022-08-19T10:45:19;27.20;45.90
70184;DHT22;57554;51.546;6.776;2022-08-19T10:47:49;27.10;45.60
70184;DHT22;57554;51.546;6.776;2022-08-19T10:50:15;27.10;46.00
70184;DHT22;57554;51.546;6.776;2022-08-19T10:53:04;27.00;45.90
70184;DHT22;57554;51.546;6.776;2022-08-19T10:55:30;26.90;46.30
70184;DHT22;57554;51.546;6.776;2022-08-19T10:58:16;26.90;46.40
70184;DHT22;57554;51.546;6.776;2022-08-19T11:00:43;27.10;45.50
70184;DHT22;57554;51.546;6.776;2022-08-19T11:03:15;27.30;45.00
70184;DHT22;57554;51.546;6.776;2022-08-19T11:05:41;27.40;44.40
70184;DHT22;57554;51.546;6.776;2022-08-19T11:08:08;27.40;44.80
70184;DHT22;57554;51.546;6.776;2022-08-19T11:10:40;27.50;44.00
70184;DHT22;57554;51.546;6.776;2022-08-19T11:13:06;27.50;43.20
70184;DHT22;57554;51.546;6.776;2022-08-19T11:15:31;27.60;43.10
70184;DHT22;57554;51.546;6.776;2022-08-19T11:17:58;27.70;43.50
70184;DHT22;57554;51.546;6.776;2022-08-19T11:20:24;27.70;43.30
70184;DHT22;57554;51.546;6.776;2022-08-19T11:22:52;27.70;43.40
70184;DHT22;57554;51.546;6.776;2022-08-19T11:25:18;27.70;43.00
70184;DHT22;57554;51.546;6.776;2022-08-19T11:27:43;27.70;43.20
70184;DHT22;57554;51.546;6.776;2022-08-19T11:30:11;27.70;43.40
70184;DHT22;57554;51.546;6.776;2022-08-19T11:32:37;27.80;43.40
70184;DHT22;57554;51.546;6.776;2022-08-19T11:35:03;28.00;42.90
70184;DHT22;57554;51.546;6.776;2022-08-19T11:37:29;28.10;42.60
70184;DHT22;57554;51.546;6.776;2022-08-19T11:39:54;28.20;42.10
70184;DHT22;57554;51.546;6.776;2022-08-19T11:42:20;28.20;42.40
70184;DHT22;57554;51.546;6.776;2022-08-19T11:45:05;28.30;42.00
70184;DHT22;57554;51.546;6.776;2022-08-19T11:47:30;28.40;41.40
70184;DHT22;57554;51.546;6.776;2022-08-19T11:49:56;28.70;39.70
70184;DHT22;57554;51.546;6.776;2022-08-19T11:52:22;28.70;39.60
70184;DHT22;57554;51.546;6.776;2022-08-19T11:54:48;28.80;39.50
70184;DHT22;57554;51.546;6.776;2022-08-19T11:57:14;28.90;39.90
70184;DHT22;57554;51.546;6.776;2022-08-19T11:59:47;29.10;39.50
70184;DHT22;57554;51.546;6.776;2022-08-19T12:02:12;29.20;39.10
70184;DHT22;57554;51.546;6.776;2022-08-19T12:04:40;29.10;39.40
70184;DHT22;57554;51.546;6.776;2022-08-19T12:07:06;29.10;39.70
70184;DHT22;57554;51.546;6.776;2022-08-19T12:09:32;29.20;39.30
70184;DHT22;57554;51.546;6.776;2022-08-19T12:12:00;29.10;39.30
70184;DHT22;57554;51.546;6.776;2022-08-19T12:14:27;29.10;38.50
70184;DHT22;57554;51.546;6.776;2022-08-19T12:16:55;29.10;38.70
70184;DHT22;57554;51.546;6.776;2022-08-19T12:19:20;29.10;39.60
70184;DHT22;57554;51.546;6.776;2022-08-19T12:21:46;29.20;39.20
70184;DHT22;57554;51.546;6.776;2022-08-19T12:24:12;29.30;39.00
70184;DHT22;57554;51.546;6.776;2022-08-19T12:26:37;29.40;38.10
70184;DHT22;57554;51.546;6.776;2022-08-19T12:29:03;29.50;38.00
70184;DHT22;57554;51.546;6.776;2022-08-19T12:31:29;29.50;37.40
70184;DHT22;57554;51.546;6.776;2022-08-19T12:33:55;29.50;37.00
70184;DHT22;57554;51.546;6.776;2022-08-19T12:36:21;29.40;36.50
70184;DHT22;57554;51.546;6.776;2022-08-19T12:38:48;29.40;36.70
70184;DHT22;57554;51.546;6.776;2022-08-19T12:41:15;29.40;37.20
70184;DHT22;57554;51.546;6.776;2022-08-19T12:43:43;29.50;37.20
70184;DHT22;57554;51.546;6.776;2022-08-19T12:46:10;29.60;37.10
70184;DHT22;57554;51.546;6.776;2022-08-19T12:48:36;29.60;36.80
70184;DHT22;57554;51.546;6.776;2022-08-19T12:51:09;29.60;37.10
70184;DHT22;57554;51.546;6.776;2022-08-19T12:53:35;29.50;36.40
70184;DHT22;57554;51.546;6.776;2022-08-19T12:56:01;29.40;37.10
70184;DHT22;57554;51.546;6.776;2022-08-19T12:58:27;29.30;37.10
70184;DHT22;57554;51.546;6.776;2022-08-19T13:00:53;29.20;37.00
70184;DHT22;57554;51.546;6.776;2022-08-19T13:03:19;29.20;37.10
70184;DHT22;57554;51.546;6.776;2022-08-19T13:05:44;29.20;37.30
70184;DHT22;57554;51.546;6.776;2022-08-19T13:08:10;29.20;37.00
70184;DHT22;57554;51.546;6.776;2022-08-19T13:10:37;29.30;36.10
70184;DHT22;57554;51.546;6.776;2022-08-19T13:13:05;29.30;36.00
70184;DHT22;57554;51.546;6.776;2022-08-19T13:15:34;29.40;35.50
70184;DHT22;57554;51.546;6.776;2022-08-19T13:18:00;29.40;35.70
70184;DHT22;57554;51.546;6.776;2022-08-19T13:20:26;29.40;35.90
70184;DHT22;57554;51.546;6.776;2022-08-19T13:22:52;29.50;36.30
70184;DHT22;57554;51.546;6.776;2022-08-19T13:25:18;29.50;36.20
70184;DHT22;57554;51.546;6.776;2022-08-19T13:27:46;29.60;35.70
70184;DHT22;57554;51.546;6.776;2022-08-19T13:30:13;29.60;35.60
70184;DHT22;57554;51.546;6.776;2022-08-19T13:32:58;29.60;35.50
70184;DHT22;57554;51.546;6.776;2022-08-19T13:35:50;29.60;35.00
70184;DHT22;57554;51.546;6.776;2022-08-19T13:38:19;29.50;35.50
70184;DHT22;57554;51.546;6.776;2022-08-19T13:40:46;29.50;36.30
70184;DHT22;57554;51.546;6.776;2022-08-19T13:43:12;29.50;36.00
70184;DHT22;57554;51.546;6.776;2022-08-19T13:45:39;29.50;36.00
70184;DHT22;57554;51.546;6.776;2022-08-19T13:48:06;29.50;36.40
70184;DHT22;57554;51.546;6.776;2022-08-19T13:50:39;29.50;36.40
70184;DHT22;57554;51.546;6.776;2022-08-19T13:53:07;29.70;36.30
70184;DHT22;57554;51.546;6.776;2022-08-19T13:55:34;29.80;36.10
70184;DHT22;57554;51.546;6.776;2022-08-19T13:58:01;29.80;36.30
70184;DHT22;57554;51.546;6.776;2022-08-19T14:00:30;29.90;36.30
70184;DHT22;57554;51.546;6.776;2022-08-19T14:02:56;29.90;36.30
70184;DHT22;57554;51.546;6.776;2022-08-19T14:05:23;29.80;36.00
70184;DHT22;57554;51.546;6.776;2022-08-19T14:07:49;29.50;37.00
70184;DHT22;57554;51.546;6.776;2022-08-19T14:10:16;29.30;36.90
70184;DHT22;57554;51.546;6.776;2022-08-19T14:12:42;29.20;37.90
70184;DHT22;57554;51.546;6.776;2022-08-19T14:15:09;29.10;38.50
70184;DHT22;57554;51.546;6.776;2022-08-19T14:17:38;29.10;38.90
70184;DHT22;57554;51.546;6.776;2022-08-19T14:20:06;29.20;38.90
70184;DHT22;57554;51.546;6.776;2022-08-19T14:22:39;29.40;38.40
70184;DHT22;57554;51.546;6.776;2022-08-19T14:25:08;29.30;38.00
70184;DHT22;57554;51.546;6.776;2022-08-19T14:27:35;29.10;38.00
70184;DHT22;57554;51.546;6.776;2022-08-19T14:30:02;28.90;38.00
70184;DHT22;57554;51.546;6.776;2022-08-19T14:32:28;28.80;38.30
70184;DHT22;57554;51.546;6.776;2022-08-19T14:34:54;28.90;37.80
70184;DHT22;57554;51.546;6.776;2022-08-19T14:37:20;29.10;37.50
70184;DHT22;57554;51.546;6.776;2022-08-19T14:39:46;29.20;36.80
70184;DHT22;57554;51.546;6.776;2022-08-19T14:42:12;29.30;37.10
70184;DHT22;57554;51.546;6.776;2022-08-19T14:44:40;29.30;36.60
70184;DHT22;57554;51.546;6.776;2022-08-19T14:47:05;29.40;36.40
70184;DHT22;57554;51.546;6.776;2022-08-19T14:49:33;29.40;36.00
70184;DHT22;57554;51.546;6.776;2022-08-19T14:51:58;29.40;36.30
70184;DHT22;57554;51.546;6.776;2022-08-19T14:54:24;29.40;36.70
70184;DHT22;57554;51.546;6.776;2022-08-19T14:56:49;29.30;36.60
70184;DHT22;57554;51.546;6.776;2022-08-19T14:59:15;29.30;37.20
70184;DHT22;57554;51.546;6.776;2022-08-19T15:01:41;29.30;37.00
70184;DHT22;57554;51.546;6.776;2022-08-19T15:04:06;29.30;36.40
70184;DHT22;57554;51.546;6.776;2022-08-19T15:06:32;29.30;37.00
70184;DHT22;57554;51.546;6.776;2022-08-19T15:08:58;29.30;35.80
70184;DHT22;57554;51.546;6.776;2022-08-19T15:11:25;29.30;35.80
70184;DHT22;57554;51.546;6.776;2022-08-19T15:13:56;29.20;35.40
70184;DHT22;57554;51.546;6.776;2022-08-19T15:16:23;29.10;35.60
70184;DHT22;57554;51.546;6.776;2022-08-19T15:18:56;29.10;36.40
70184;DHT22;57554;51.546;6.776;2022-08-19T15:21:23;29.10;36.00
70184;DHT22;57554;51.546;6.776;2022-08-19T15:23:49;29.20;35.90
70184;DHT22;57554;51.546;6.776;2022-08-19T15:26:17;29.10;36.40
70184;DHT22;57554;51.546;6.776;2022-08-19T15:28:44;29.20;36.20
70184;DHT22;57554;51.546;6.776;2022-08-19T15:31:11;29.30;36.30
70184;DHT22;57554;51.546;6.776;2022-08-19T15:33:39;29.30;36.30
70184;DHT22;57554;51.546;6.776;2022-08-19T15:36:07;29.30;37.00
70184;DHT22;57554;51.546;6.776;2022-08-19T15:38:34;29.20;37.00
70184;DHT22;57554;51.546;6.776;2022-08-19T15:41:03;29.20;37.00